createdAt,value
2023-01-20T00:01:15.481Z,85.17
2023-01-20T00:03:44.556Z,85.17
2023-01-20T00:06:13.310Z,85.17
2023-01-20T00:08:42.797Z,85.14
2023-01-20T00:11:11.991Z,85.00
2023-01-20T00:13:40.628Z,85.06
2023-01-20T00:16:09.666Z,84.82
2023-01-20T00:18:38.096Z,84.99
2023-01-20T00:21:06.612Z,84.78
2023-01-20T00:23:34.656Z,84.82
2023-01-20T00:26:07.197Z,84.53
2023-01-20T00:28:35.537Z,84.65
2023-01-20T00:31:14.016Z,84.71
2023-01-20T00:33:42.740Z,84.63
2023-01-20T00:36:11.504Z,84.88
2023-01-20T00:38:39.950Z,84.86
2023-01-20T00:41:25.707Z,84.56
2023-01-20T00:43:53.780Z,84.47
2023-01-20T00:46:23.067Z,84.56
2023-01-20T00:48:51.106Z,84.32
2023-01-20T00:51:19.193Z,84.43
2023-01-20T00:53:47.082Z,84.41
2023-01-20T00:56:15.164Z,84.17
2023-01-20T00:58:45.608Z,84.01
2023-01-20T01:01:13.687Z,84.06
2023-01-20T01:03:41.832Z,83.88
2023-01-20T01:06:10.845Z,83.99
2023-01-20T01:08:38.711Z,83.92
2023-01-20T01:11:07.357Z,84.20
2023-01-20T01:13:35.743Z,83.79
2023-01-20T01:16:05.426Z,84.04
2023-01-20T01:18:33.405Z,83.93
2023-01-20T01:21:01.429Z,83.79
2023-01-20T01:23:29.426Z,83.65
2023-01-20T01:25:57.557Z,83.76
2023-01-20T01:28:25.502Z,83.69
2023-01-20T01:30:53.564Z,83.79
2023-01-20T01:33:23.015Z,83.81
2023-01-20T01:35:57.630Z,83.91
2023-01-20T01:38:25.984Z,83.71
2023-01-20T01:40:54.779Z,83.65
2023-01-20T01:43:25.033Z,83.36
2023-01-20T01:45:53.063Z,83.35
2023-01-20T01:48:24.382Z,83.37
2023-01-20T01:50:54.622Z,83.57
2023-01-20T01:53:22.667Z,83.06
2023-01-20T01:55:52.476Z,83.16
2023-01-20T02:01:18.374Z,82.95
2023-01-20T02:03:51.254Z,82.82
2023-01-20T02:06:19.740Z,82.87
2023-01-20T02:08:48.837Z,83.18
2023-01-20T02:11:16.746Z,82.89
2023-01-20T02:13:45.158Z,82.92
2023-01-20T02:16:16.669Z,82.92
2023-01-20T02:18:52.113Z,82.79
2023-01-20T02:21:36.297Z,82.55
2023-01-20T02:24:30.903Z,81.99
2023-01-20T02:27:04.951Z,82.40
2023-01-20T02:29:54.470Z,81.98
2023-01-20T02:32:27.909Z,82.34
2023-01-20T02:34:59.276Z,82.13
2023-01-20T02:37:29.480Z,81.95
2023-01-20T02:40:02.173Z,81.82
2023-01-20T02:42:38.115Z,81.80
2023-01-20T02:45:09.288Z,81.71
2023-01-20T02:47:40.986Z,81.81
2023-01-20T02:50:11.697Z,81.35
2023-01-20T02:52:41.156Z,81.95
2023-01-20T02:55:11.053Z,81.52
2023-01-20T02:57:42.302Z,81.45
2023-01-20T03:00:14.156Z,81.35
2023-01-20T03:02:45.597Z,81.56
2023-01-20T03:05:15.878Z,81.63
2023-01-20T03:07:45.857Z,81.43
2023-01-20T03:10:16.054Z,80.85
2023-01-20T03:12:47.363Z,80.95
2023-01-20T03:15:16.328Z,80.90
2023-01-20T03:17:46.209Z,81.13
2023-01-20T03:20:14.470Z,80.89
2023-01-20T03:22:42.831Z,80.55
2023-01-20T03:25:12.223Z,80.54
2023-01-20T03:27:40.668Z,80.83
2023-01-20T03:30:13.308Z,80.23
2023-01-20T03:32:42.093Z,79.87
2023-01-20T03:35:12.085Z,80.08
2023-01-20T03:37:40.230Z,80.12
2023-01-20T03:40:09.135Z,80.04
2023-01-20T03:42:40.939Z,79.96
2023-01-20T03:45:12.287Z,79.96
2023-01-20T03:47:46.247Z,79.89
2023-01-20T03:50:19.661Z,79.53
2023-01-20T03:52:50.407Z,79.81
2023-01-20T03:55:22.812Z,78.95
2023-01-20T03:57:54.540Z,79.67
2023-01-20T04:00:24.275Z,79.45
2023-01-20T04:02:53.867Z,79.42
2023-01-20T04:05:23.448Z,79.11
2023-01-20T04:07:53.256Z,79.35
2023-01-20T04:10:21.732Z,79.09
2023-01-20T04:12:50.233Z,79.10
2023-01-20T04:15:19.203Z,79.24
2023-01-20T04:17:47.245Z,79.22
2023-01-20T04:20:16.778Z,78.94
2023-01-20T04:22:49.359Z,79.03
2023-01-20T04:25:22.063Z,78.93
2023-01-20T04:27:50.091Z,79.00
2023-01-20T04:30:18.455Z,78.83
2023-01-20T04:32:46.461Z,78.42
2023-01-20T04:35:15.524Z,78.21
2023-01-20T04:40:26.154Z,78.02
2023-01-20T04:42:54.283Z,78.04
2023-01-20T04:45:22.447Z,78.12
2023-01-20T04:47:50.903Z,78.22
2023-01-20T04:50:18.800Z,78.57
2023-01-20T04:52:46.798Z,77.91
2023-01-20T04:55:15.248Z,78.06
2023-01-20T04:57:44.719Z,77.64
2023-01-20T05:00:18.707Z,78.02
2023-01-20T05:02:46.883Z,77.91
2023-01-20T05:05:15.267Z,77.67
2023-01-20T05:07:43.614Z,77.82
2023-01-20T05:10:13.259Z,77.98
2023-01-20T05:12:41.831Z,77.28
2023-01-20T05:15:11.955Z,77.58
2023-01-20T05:17:40.593Z,77.33
2023-01-20T05:20:09.236Z,77.25
2023-01-20T05:22:37.252Z,77.26
2023-01-20T05:25:05.998Z,77.25
2023-01-20T05:27:36.043Z,76.58
2023-01-20T05:30:04.227Z,76.28
2023-01-20T05:32:33.959Z,76.60
2023-01-20T05:37:41.713Z,76.17
2023-01-20T05:40:10.738Z,76.14
2023-01-20T05:42:38.879Z,75.96
2023-01-20T05:45:07.514Z,75.80
2023-01-20T05:47:36.950Z,76.02
2023-01-20T05:50:05.040Z,75.79
2023-01-20T05:52:33.095Z,75.85
2023-01-20T05:55:01.634Z,75.74
2023-01-20T05:57:30.965Z,75.32
2023-01-20T05:59:59.146Z,75.51
2023-01-20T06:02:27.122Z,75.23
2023-01-20T06:04:56.830Z,75.48
2023-01-20T06:07:25.550Z,75.29
2023-01-20T06:09:53.695Z,75.20
2023-01-20T06:12:25.206Z,75.21
2023-01-20T06:14:53.378Z,74.57
2023-01-20T06:17:21.594Z,74.88
2023-01-20T06:19:49.689Z,75.41
2023-01-20T06:22:21.250Z,74.67
2023-01-20T06:24:49.428Z,75.04
2023-01-20T06:27:17.753Z,74.70
2023-01-20T06:29:45.979Z,74.80
2023-01-20T06:32:14.029Z,74.41
2023-01-20T06:34:42.336Z,74.27
2023-01-20T06:37:10.554Z,74.00
2023-01-20T06:39:40.575Z,73.54
2023-01-20T06:42:08.723Z,74.15
2023-01-20T06:44:36.878Z,74.03
2023-01-20T06:47:05.098Z,73.61
2023-01-20T06:49:33.723Z,73.80
2023-01-20T06:52:02.052Z,74.05
2023-01-20T06:54:29.991Z,73.18
2023-01-20T06:56:59.605Z,73.40
2023-01-20T06:59:27.717Z,73.72
2023-01-20T07:01:56.082Z,73.19
2023-01-20T07:04:24.221Z,73.29
2023-01-20T07:06:52.356Z,73.05
2023-01-20T07:09:20.505Z,73.34
2023-01-20T07:11:48.567Z,73.17
2023-01-20T07:14:18.306Z,73.24
2023-01-20T07:16:47.386Z,73.18
2023-01-20T07:19:15.840Z,73.23
2023-01-20T07:21:44.148Z,73.42
2023-01-20T07:24:12.268Z,73.09
2023-01-20T07:26:40.372Z,73.09
2023-01-20T07:29:08.541Z,73.11
2023-01-20T07:31:38.876Z,72.73
2023-01-20T07:34:07.502Z,73.29
2023-01-20T07:36:35.670Z,73.05
2023-01-20T07:39:03.775Z,73.12
2023-01-20T07:41:32.221Z,72.94
2023-01-20T07:44:00.662Z,72.84
2023-01-20T07:46:28.667Z,72.12
2023-01-20T07:48:58.384Z,72.21
2023-01-20T07:51:26.402Z,72.49
2023-01-20T07:53:54.539Z,72.57
2023-01-20T07:56:23.736Z,72.23
2023-01-20T07:58:51.884Z,71.66
2023-01-20T08:01:21.421Z,71.91
2023-01-20T08:03:49.475Z,71.96
2023-01-20T08:06:19.658Z,71.91
2023-01-20T08:08:47.857Z,71.55
2023-01-20T08:11:17.118Z,71.92
2023-01-20T08:13:45.413Z,71.56
2023-01-20T08:16:15.032Z,71.28
2023-01-20T08:18:43.681Z,71.35
2023-01-20T08:21:19.215Z,71.13
2023-01-20T08:23:47.398Z,71.61
2023-01-20T08:26:15.982Z,71.50
2023-01-20T08:28:44.070Z,71.24
2023-01-20T08:31:13.137Z,71.33
2023-01-20T08:33:42.747Z,71.12
2023-01-20T08:36:12.142Z,71.15
2023-01-20T08:38:41.735Z,71.00
2023-01-20T08:41:10.443Z,71.00
2023-01-20T08:43:38.712Z,70.50
2023-01-20T08:46:07.978Z,70.34
2023-01-20T08:49:03.129Z,70.50
2023-01-20T08:51:32.937Z,70.29
2023-01-20T08:54:02.874Z,70.22
2023-01-20T08:56:31.376Z,70.19
2023-01-20T09:01:58.611Z,69.26
2023-01-20T09:04:26.789Z,69.51
2023-01-20T09:06:54.794Z,69.53
2023-01-20T09:09:24.596Z,69.35
2023-01-20T09:11:52.550Z,68.11
2023-01-20T09:14:21.037Z,68.76
2023-01-20T09:16:49.361Z,68.82
2023-01-20T09:19:17.550Z,68.59
2023-01-20T09:21:45.821Z,68.85
2023-01-20T09:24:13.772Z,68.84
2023-01-20T09:26:43.101Z,68.49
2023-01-20T09:29:12.443Z,68.68
2023-01-20T09:31:44.578Z,68.34
2023-01-20T09:34:15.399Z,68.63
2023-01-20T09:36:43.444Z,68.46
2023-01-20T09:39:29.855Z,68.55
2023-01-20T09:42:19.969Z,68.50
2023-01-20T09:44:50.145Z,68.09
2023-01-20T09:47:29.681Z,67.69
2023-01-20T09:50:32.099Z,67.72
2023-01-20T09:53:05.393Z,67.92
2023-01-20T09:55:40.156Z,67.80
2023-01-20T09:58:13.107Z,68.21
2023-01-20T10:00:42.476Z,67.67
2023-01-20T10:03:14.847Z,67.79
2023-01-20T10:05:46.457Z,67.90
2023-01-20T10:08:21.619Z,67.66
2023-01-20T10:10:53.161Z,67.16
2023-01-20T10:13:25.656Z,67.60
2023-01-20T10:15:55.690Z,66.72
2023-01-20T10:21:14.917Z,67.14
2023-01-20T10:23:44.211Z,67.09
2023-01-20T10:26:14.599Z,66.64
2023-01-20T10:28:47.038Z,66.71
2023-01-20T10:31:19.310Z,66.96
2023-01-20T10:33:47.614Z,66.30
2023-01-20T10:36:17.923Z,66.40
2023-01-20T10:38:54.041Z,66.53
2023-01-20T10:41:25.585Z,66.58
2023-01-20T10:43:55.304Z,66.35
2023-01-20T10:46:34.486Z,66.09
2023-01-20T10:49:13.759Z,65.70
2023-01-20T10:51:46.266Z,64.60
2023-01-20T10:54:19.021Z,65.62
2023-01-20T10:56:53.872Z,65.51
2023-01-20T10:59:28.245Z,65.61
2023-01-20T11:02:10.940Z,65.36
2023-01-20T11:04:40.027Z,65.01
2023-01-20T11:07:14.511Z,65.27
2023-01-20T11:09:42.832Z,65.35
2023-01-20T11:12:14.315Z,65.66
2023-01-20T11:14:44.303Z,66.03
2023-01-20T11:17:15.719Z,65.84
2023-01-20T11:19:51.148Z,66.33
2023-01-20T11:22:23.708Z,66.29
2023-01-20T11:24:55.188Z,66.48
2023-01-20T11:27:25.139Z,66.11
2023-01-20T11:29:58.047Z,66.07
2023-01-20T11:32:27.650Z,66.24
2023-01-20T11:34:56.222Z,66.55
2023-01-20T11:37:27.000Z,66.17
2023-01-20T11:40:00.767Z,66.40
2023-01-20T11:42:29.549Z,66.26
2023-01-20T11:45:15.375Z,65.68
2023-01-20T11:48:00.639Z,65.86
2023-01-20T11:50:31.284Z,65.65
2023-01-20T11:53:13.413Z,65.43
2023-01-20T11:55:46.891Z,64.87
2023-01-20T11:58:18.594Z,65.63
2023-01-20T12:00:48.900Z,65.65
2023-01-20T12:03:34.132Z,65.46
2023-01-20T12:06:05.173Z,65.61
2023-01-20T12:08:36.473Z,65.79
2023-01-20T12:11:09.722Z,65.65
2023-01-20T12:13:54.607Z,66.15
2023-01-20T12:16:25.743Z,66.41
2023-01-20T12:19:02.314Z,66.52
2023-01-20T12:21:35.734Z,66.38
2023-01-20T12:24:06.485Z,66.63
2023-01-20T12:26:36.371Z,66.56
2023-01-20T12:29:14.990Z,66.46
2023-01-20T12:31:49.092Z,66.44
2023-01-20T12:34:17.881Z,66.26
2023-01-20T12:37:06.835Z,66.29
2023-01-20T12:39:49.590Z,66.31
2023-01-20T12:42:44.719Z,66.33
2023-01-20T12:45:17.077Z,66.51
2023-01-20T12:47:51.726Z,66.33
2023-01-20T12:50:25.720Z,66.37
2023-01-20T12:53:03.826Z,66.54
2023-01-20T12:55:38.944Z,66.49
2023-01-20T12:58:11.167Z,66.46
2023-01-20T13:00:45.467Z,66.40
2023-01-20T13:03:31.477Z,66.44
2023-01-20T13:06:11.462Z,66.75
2023-01-20T13:08:43.584Z,66.67
2023-01-20T13:11:16.718Z,66.80
2023-01-20T13:13:57.359Z,66.87
2023-01-20T13:16:32.612Z,67.19
2023-01-20T13:19:04.961Z,67.42
2023-01-20T13:21:35.037Z,67.39
2023-01-20T13:24:04.364Z,67.39
2023-01-20T13:26:32.970Z,68.10
2023-01-20T13:29:01.120Z,68.02
2023-01-20T13:31:34.907Z,68.20
2023-01-20T13:34:21.621Z,68.29
2023-01-20T13:37:04.494Z,68.38
2023-01-20T13:39:41.865Z,68.37
2023-01-20T13:42:24.716Z,68.48
2023-01-20T13:45:11.652Z,68.39
2023-01-20T13:48:03.610Z,68.38
2023-01-20T13:50:33.105Z,68.49
2023-01-20T13:53:19.057Z,68.40
2023-01-20T13:55:55.191Z,68.34
2023-01-20T13:58:24.817Z,68.03
2023-01-20T14:00:53.512Z,68.10
2023-01-20T14:03:26.240Z,68.12
2023-01-20T14:05:55.054Z,68.31
2023-01-20T14:08:23.574Z,68.26
2023-01-20T14:10:51.749Z,68.49
2023-01-20T14:13:22.765Z,68.54
2023-01-20T14:15:52.143Z,68.48
2023-01-20T14:18:21.910Z,68.64
2023-01-20T14:21:03.319Z,68.56
2023-01-20T14:23:33.263Z,68.67
2023-01-20T14:26:02.771Z,68.65
2023-01-20T14:28:32.846Z,68.65
2023-01-20T14:31:13.502Z,68.66
2023-01-20T14:33:45.958Z,68.74
2023-01-20T14:36:16.269Z,68.70
2023-01-20T14:38:56.595Z,68.67
2023-01-20T14:41:26.273Z,68.84
2023-01-20T14:43:56.063Z,68.75
2023-01-20T14:46:24.522Z,68.91
2023-01-20T14:48:53.316Z,68.95
2023-01-20T14:51:21.771Z,68.90
2023-01-20T14:54:09.875Z,68.92
2023-01-20T14:56:37.888Z,68.80
2023-01-20T14:59:19.579Z,69.11
2023-01-20T15:01:52.085Z,69.41
2023-01-20T15:04:20.346Z,69.33
2023-01-20T15:06:52.850Z,69.40
2023-01-20T15:09:28.008Z,69.40
2023-01-20T15:12:11.255Z,69.36
2023-01-20T15:14:41.438Z,69.49
2023-01-20T15:17:09.906Z,69.53
2023-01-20T15:19:37.990Z,69.31
2023-01-20T15:22:17.834Z,69.32
2023-01-20T15:24:47.422Z,69.11
2023-01-20T15:27:33.610Z,69.27
2023-01-20T15:30:05.546Z,69.28
2023-01-20T15:32:33.573Z,69.18
2023-01-20T15:35:01.597Z,69.04
2023-01-20T15:37:30.754Z,69.19
2023-01-20T15:39:59.660Z,69.12
2023-01-20T15:42:27.595Z,69.25
2023-01-20T15:44:55.600Z,69.37
2023-01-20T15:47:31.074Z,69.22
2023-01-20T15:49:59.460Z,69.23
2023-01-20T15:52:27.540Z,69.43
2023-01-20T15:54:55.774Z,69.43
2023-01-20T15:57:23.800Z,69.48
2023-01-20T15:59:52.323Z,69.38
2023-01-20T16:02:21.285Z,69.14
2023-01-20T16:04:51.101Z,69.42
2023-01-20T16:07:19.948Z,69.39
2023-01-20T16:09:48.748Z,69.24
2023-01-20T16:12:17.592Z,69.34
2023-01-20T16:14:46.016Z,69.28
2023-01-20T16:17:15.387Z,69.21
2023-01-20T16:19:43.316Z,69.34
2023-01-20T16:22:13.679Z,69.43
2023-01-20T16:24:42.496Z,69.19
2023-01-20T16:27:15.728Z,69.19
2023-01-20T16:29:43.770Z,69.08
2023-01-20T16:32:12.148Z,68.95
2023-01-20T16:34:40.284Z,69.04
2023-01-20T16:37:08.307Z,68.82
2023-01-20T16:39:37.853Z,68.71
2023-01-20T16:42:05.981Z,68.28
2023-01-20T16:44:33.890Z,68.03
2023-01-20T16:47:02.072Z,67.94
2023-01-20T16:49:30.193Z,68.02
2023-01-20T16:51:58.198Z,68.01
2023-01-20T16:54:26.353Z,67.95
2023-01-20T16:56:55.625Z,68.07
2023-01-20T16:59:23.991Z,68.06
2023-01-20T17:01:52.500Z,68.04
2023-01-20T17:04:20.841Z,68.13
2023-01-20T17:06:49.100Z,68.05
2023-01-20T17:09:17.049Z,67.92
2023-01-20T17:11:45.012Z,67.79
2023-01-20T17:14:15.720Z,67.87
2023-01-20T17:16:43.803Z,67.66
2023-01-20T17:19:13.296Z,67.56
2023-01-20T17:21:41.515Z,67.79
2023-01-20T17:24:11.583Z,67.87
2023-01-20T17:26:39.849Z,67.82
2023-01-20T17:29:08.751Z,67.86
2023-01-20T17:31:40.529Z,67.82
2023-01-20T17:34:10.386Z,67.67
2023-01-20T17:36:39.151Z,67.56
2023-01-20T17:39:07.633Z,67.59
2023-01-20T17:41:35.885Z,67.26
2023-01-20T17:44:04.278Z,67.00
2023-01-20T17:46:32.624Z,67.15
2023-01-20T17:49:04.805Z,66.94
2023-01-20T17:51:33.973Z,66.83
2023-01-20T17:54:05.144Z,66.77
2023-01-20T17:56:33.319Z,66.47
2023-01-20T17:59:01.412Z,66.74
2023-01-20T18:01:30.559Z,66.66
2023-01-20T18:03:59.475Z,66.53
2023-01-20T18:06:30.831Z,66.68
2023-01-20T18:09:00.722Z,66.35
2023-01-20T18:11:29.964Z,66.48
2023-01-20T18:13:58.820Z,66.37
2023-01-20T18:16:28.849Z,66.22
2023-01-20T18:18:59.186Z,66.37
2023-01-20T18:21:29.962Z,66.21
2023-01-20T18:23:58.485Z,66.29
2023-01-20T18:26:27.396Z,66.39
2023-01-20T18:28:56.213Z,66.37
2023-01-20T18:31:25.273Z,66.30
2023-01-20T18:33:56.695Z,66.40
2023-01-20T18:36:25.480Z,66.19
2023-01-20T18:38:56.237Z,66.25
2023-01-20T18:41:24.570Z,66.05
2023-01-20T18:43:52.493Z,66.03
2023-01-20T18:46:21.025Z,66.38
2023-01-20T18:48:49.265Z,66.30
2023-01-20T18:51:20.747Z,66.13
2023-01-20T18:53:54.018Z,66.26
2023-01-20T18:56:24.653Z,66.19
2023-01-20T18:58:54.029Z,66.26
2023-01-20T19:01:23.372Z,66.19
2023-01-20T19:03:52.414Z,66.31
2023-01-20T19:06:21.322Z,66.33
2023-01-20T19:08:49.522Z,66.08
2023-01-20T19:11:19.010Z,66.15
2023-01-20T19:13:49.004Z,66.62
2023-01-20T19:16:17.785Z,66.50
2023-01-20T19:18:46.501Z,66.52
2023-01-20T19:21:22.881Z,66.85
2023-01-20T19:23:51.644Z,66.79
2023-01-20T19:26:20.558Z,66.78
2023-01-20T19:28:56.336Z,67.00
2023-01-20T19:31:24.622Z,67.20
2023-01-20T19:33:53.111Z,67.30
2023-01-20T19:36:21.374Z,67.17
2023-01-20T19:38:49.636Z,67.28
2023-01-20T19:41:18.690Z,67.21
2023-01-20T19:43:46.875Z,67.15
2023-01-20T19:46:17.918Z,67.24
2023-01-20T19:48:46.179Z,67.48
2023-01-20T19:51:15.579Z,67.53
2023-01-20T19:53:44.258Z,67.55
2023-01-20T19:56:12.901Z,67.67
2023-01-20T19:58:41.932Z,67.82
2023-01-20T20:01:13.096Z,67.98
2023-01-20T20:03:42.905Z,67.85
2023-01-20T20:06:23.318Z,68.01
2023-01-20T20:08:51.728Z,67.97
2023-01-20T20:11:19.718Z,67.87
2023-01-20T20:13:47.715Z,67.85
2023-01-20T20:16:16.175Z,68.04
2023-01-20T20:18:49.372Z,68.32
2023-01-20T20:21:17.397Z,68.22
2023-01-20T20:23:45.540Z,68.55
2023-01-20T20:26:13.502Z,68.15
2023-01-20T20:28:41.620Z,68.49
2023-01-20T20:31:09.990Z,68.17
2023-01-20T20:33:38.055Z,68.06
2023-01-20T20:36:11.452Z,68.18
2023-01-20T20:38:39.419Z,68.50
2023-01-20T20:41:08.286Z,68.50
2023-01-20T20:43:36.594Z,68.49
2023-01-20T20:46:05.818Z,68.23
2023-01-20T20:48:34.692Z,68.33
2023-01-20T20:51:06.530Z,68.32
2023-01-20T20:53:36.061Z,68.30
2023-01-20T20:56:07.974Z,68.40
2023-01-20T20:58:36.146Z,68.09
2023-01-20T21:01:07.824Z,68.19
2023-01-20T21:03:36.772Z,68.36
2023-01-20T21:06:05.095Z,68.33
2023-01-20T21:08:33.265Z,68.31
2023-01-20T21:11:02.789Z,68.30
2023-01-20T21:13:31.304Z,68.53
2023-01-20T21:16:01.252Z,68.31
2023-01-20T21:18:29.670Z,68.64
2023-01-20T21:20:58.355Z,68.58
2023-01-20T21:23:26.594Z,68.78
2023-01-20T21:25:54.592Z,68.75
2023-01-20T21:28:24.751Z,68.52
2023-01-20T21:30:52.771Z,68.96
2023-01-20T21:33:20.810Z,68.85
2023-01-20T21:35:48.784Z,69.00
2023-01-20T21:38:16.855Z,69.00
2023-01-20T21:41:00.044Z,68.84
2023-01-20T21:43:48.711Z,69.31
2023-01-20T21:46:16.708Z,69.10
2023-01-20T21:49:02.137Z,69.36
2023-01-20T21:54:28.396Z,69.39
2023-01-20T21:56:56.575Z,69.34
2023-01-20T21:59:26.272Z,69.37
2023-01-20T22:01:54.322Z,69.49
2023-01-20T22:04:22.250Z,69.32
2023-01-20T22:06:50.456Z,69.88
2023-01-20T22:09:18.448Z,69.77
2023-01-20T22:11:46.460Z,69.96
2023-01-20T22:14:14.432Z,69.84
2023-01-20T22:16:44.342Z,69.84
2023-01-20T22:19:12.995Z,69.97
2023-01-20T22:21:40.955Z,69.64
2023-01-20T22:24:09.404Z,70.01
2023-01-20T22:26:37.491Z,69.97
2023-01-20T22:29:05.580Z,70.00
2023-01-20T22:34:16.478Z,69.91
2023-01-20T22:36:45.166Z,70.37
2023-01-20T22:39:13.146Z,70.31
2023-01-20T22:41:41.255Z,70.32
2023-01-20T22:44:09.631Z,70.25
2023-01-20T22:46:39.990Z,70.06
2023-01-20T22:49:08.050Z,69.91
2023-01-20T22:51:37.429Z,69.96
2023-01-20T22:54:07.343Z,70.03
2023-01-20T22:56:35.511Z,70.19
2023-01-20T22:59:03.534Z,70.13
2023-01-20T23:01:32.589Z,70.04
2023-01-20T23:04:02.135Z,70.23
2023-01-20T23:06:30.890Z,69.92
2023-01-20T23:09:00.635Z,69.97
2023-01-20T23:11:28.719Z,69.42
2023-01-20T23:13:56.809Z,69.59
2023-01-20T23:16:24.838Z,69.42
2023-01-20T23:18:53.274Z,69.64
2023-01-20T23:21:21.805Z,69.73
2023-01-20T23:23:54.401Z,69.08
2023-01-20T23:26:24.985Z,69.07
2023-01-20T23:28:54.083Z,68.88
2023-01-20T23:31:22.723Z,68.91
2023-01-20T23:33:51.150Z,69.06
2023-01-20T23:36:20.257Z,68.78
2023-01-20T23:38:48.585Z,68.53
2023-01-20T23:41:17.255Z,68.80
2023-01-20T23:43:46.558Z,68.46
2023-01-20T23:46:14.576Z,68.49
2023-01-20T23:48:42.581Z,68.09
2023-01-20T23:51:11.487Z,68.10
2023-01-20T23:53:40.504Z,67.79
2023-01-20T23:56:11.185Z,67.60
2023-01-20T23:58:39.538Z,67.82
